sensor_id;sensor_type;location;lat;lon;timestamp;P1;durP1;ratioP1;P2;durP2;ratioP2
73684;SDS011;61985;51.070;14.064;2023-04-24T00:01:38;7.38;;;3.78;;
73684;SDS011;61985;51.070;14.064;2023-04-24T00:04:04;8.85;;;4.40;;
73684;SDS011;61985;51.070;14.064;2023-04-24T00:06:30;7.28;;;4.10;;
73684;SDS011;61985;51.070;14.064;2023-04-24T00:08:59;6.93;;;4.00;;
73684;SDS011;61985;51.070;14.064;2023-04-24T00:11:26;7.97;;;3.97;;
73684;SDS011;61985;51.070;14.064;2023-04-24T00:13:53;6.85;;;4.00;;
73684;SDS011;61985;51.070;14.064;2023-04-24T00:16:18;7.55;;;4.05;;
73684;SDS011;61985;51.070;14.064;2023-04-24T00:18:43;7.80;;;4.60;;
73684;SDS011;61985;51.070;14.064;2023-04-24T00:21:10;6.82;;;4.05;;
73684;SDS011;61985;51.070;14.064;2023-04-24T00:23:35;7.93;;;4.20;;
73684;SDS011;61985;51.070;14.064;2023-04-24T00:26:01;6.22;;;3.80;;
73684;SDS011;61985;51.070;14.064;2023-04-24T00:28:27;8.75;;;4.22;;
73684;SDS011;61985;51.070;14.064;2023-04-24T00:30:52;8.50;;;4.70;;
73684;SDS011;61985;51.070;14.064;2023-04-24T00:33:18;8.80;;;4.40;;
73684;SDS011;61985;51.070;14.064;2023-04-24T00:35:44;8.23;;;4.43;;
73684;SDS011;61985;51.070;14.064;2023-04-24T00:38:09;7.53;;;4.28;;
73684;SDS011;61985;51.070;14.064;2023-04-24T00:40:35;9.48;;;4.63;;
73684;SDS011;61985;51.070;14.064;2023-04-24T00:43:00;9.10;;;4.88;;
73684;SDS011;61985;51.070;14.064;2023-04-24T00:45:25;8.02;;;4.25;;
73684;SDS011;61985;51.070;14.064;2023-04-24T00:47:51;8.10;;;5.13;;
73684;SDS011;61985;51.070;14.064;2023-04-24T00:50:17;8.23;;;4.63;;
73684;SDS011;61985;51.070;14.064;2023-04-24T00:52:43;8.90;;;4.80;;
73684;SDS011;61985;51.070;14.064;2023-04-24T00:55:08;8.32;;;4.60;;
73684;SDS011;61985;51.070;14.064;2023-04-24T00:57:34;9.75;;;5.55;;
73684;SDS011;61985;51.070;14.064;2023-04-24T01:00:00;8.25;;;4.97;;
73684;SDS011;61985;51.070;14.064;2023-04-24T01:02:25;10.05;;;4.53;;
73684;SDS011;61985;51.070;14.064;2023-04-24T01:04:51;8.20;;;4.68;;
73684;SDS011;61985;51.070;14.064;2023-04-24T01:07:18;8.77;;;4.95;;
73684;SDS011;61985;51.070;14.064;2023-04-24T01:09:45;9.65;;;5.03;;
73684;SDS011;61985;51.070;14.064;2023-04-24T01:12:13;7.47;;;4.55;;
73684;SDS011;61985;51.070;14.064;2023-04-24T01:14:40;7.95;;;4.82;;
73684;SDS011;61985;51.070;14.064;2023-04-24T01:17:06;7.90;;;4.78;;
73684;SDS011;61985;51.070;14.064;2023-04-24T01:19:32;8.40;;;5.18;;
73684;SDS011;61985;51.070;14.064;2023-04-24T01:21:58;8.63;;;4.82;;
73684;SDS011;61985;51.070;14.064;2023-04-24T01:24:26;7.60;;;4.68;;
73684;SDS011;61985;51.070;14.064;2023-04-24T01:26:52;9.00;;;4.63;;
73684;SDS011;61985;51.070;14.064;2023-04-24T01:29:18;6.85;;;4.25;;
73684;SDS011;61985;51.070;14.064;2023-04-24T01:31:43;8.98;;;4.75;;
73684;SDS011;61985;51.070;14.064;2023-04-24T01:34:10;7.03;;;4.30;;
73684;SDS011;61985;51.070;14.064;2023-04-24T01:36:35;8.43;;;5.28;;
73684;SDS011;61985;51.070;14.064;2023-04-24T01:39:02;9.82;;;5.05;;
73684;SDS011;61985;51.070;14.064;2023-04-24T01:41:28;8.07;;;4.78;;
73684;SDS011;61985;51.070;14.064;2023-04-24T01:43:55;8.35;;;5.03;;
73684;SDS011;61985;51.070;14.064;2023-04-24T01:46:21;9.70;;;5.40;;
73684;SDS011;61985;51.070;14.064;2023-04-24T01:48:47;8.57;;;4.93;;
73684;SDS011;61985;51.070;14.064;2023-04-24T01:51:13;11.13;;;5.63;;
73684;SDS011;61985;51.070;14.064;2023-04-24T01:53:39;8.80;;;4.93;;
73684;SDS011;61985;51.070;14.064;2023-04-24T01:56:05;8.80;;;5.38;;
73684;SDS011;61985;51.070;14.064;2023-04-24T01:58:30;9.38;;;5.32;;
73684;SDS011;61985;51.070;14.064;2023-04-24T02:00:56;8.48;;;5.55;;
73684;SDS011;61985;51.070;14.064;2023-04-24T02:03:23;8.30;;;5.43;;
73684;SDS011;61985;51.070;14.064;2023-04-24T02:05:50;10.95;;;5.80;;
73684;SDS011;61985;51.070;14.064;2023-04-24T02:08:15;9.85;;;5.72;;
73684;SDS011;61985;51.070;14.064;2023-04-24T02:10:41;9.07;;;5.22;;
73684;SDS011;61985;51.070;14.064;2023-04-24T02:13:06;8.60;;;4.78;;
73684;SDS011;61985;51.070;14.064;2023-04-24T02:15:31;11.75;;;5.82;;
73684;SDS011;61985;51.070;14.064;2023-04-24T02:17:57;9.10;;;5.60;;
73684;SDS011;61985;51.070;14.064;2023-04-24T02:20:22;7.40;;;4.82;;
73684;SDS011;61985;51.070;14.064;2023-04-24T02:22:47;7.53;;;4.63;;
73684;SDS011;61985;51.070;14.064;2023-04-24T02:25:13;8.20;;;5.00;;
73684;SDS011;61985;51.070;14.064;2023-04-24T02:27:38;8.15;;;5.00;;
73684;SDS011;61985;51.070;14.064;2023-04-24T02:30:03;10.27;;;4.85;;
73684;SDS011;61985;51.070;14.064;2023-04-24T02:32:30;9.98;;;5.25;;
73684;SDS011;61985;51.070;14.064;2023-04-24T02:34:55;8.55;;;5.38;;
73684;SDS011;61985;51.070;14.064;2023-04-24T02:37:22;8.68;;;4.68;;
73684;SDS011;61985;51.070;14.064;2023-04-24T02:39:47;10.45;;;5.40;;
73684;SDS011;61985;51.070;14.064;2023-04-24T02:42:13;11.93;;;5.53;;
73684;SDS011;61985;51.070;14.064;2023-04-24T02:44:38;10.55;;;6.10;;
73684;SDS011;61985;51.070;14.064;2023-04-24T02:47:04;9.32;;;5.78;;
73684;SDS011;61985;51.070;14.064;2023-04-24T02:49:30;11.50;;;5.55;;
73684;SDS011;61985;51.070;14.064;2023-04-24T02:51:55;9.60;;;5.72;;
73684;SDS011;61985;51.070;14.064;2023-04-24T02:54:20;9.52;;;5.80;;
73684;SDS011;61985;51.070;14.064;2023-04-24T02:56:46;7.90;;;5.20;;
73684;SDS011;61985;51.070;14.064;2023-04-24T02:59:11;8.65;;;4.93;;
73684;SDS011;61985;51.070;14.064;2023-04-24T03:01:37;8.45;;;5.20;;
73684;SDS011;61985;51.070;14.064;2023-04-24T03:04:02;8.65;;;5.32;;
73684;SDS011;61985;51.070;14.064;2023-04-24T03:06:28;10.18;;;5.25;;
73684;SDS011;61985;51.070;14.064;2023-04-24T03:08:53;7.88;;;4.82;;
73684;SDS011;61985;51.070;14.064;2023-04-24T03:11:19;9.75;;;6.00;;
73684;SDS011;61985;51.070;14.064;2023-04-24T03:13:47;10.27;;;5.38;;
73684;SDS011;61985;51.070;14.064;2023-04-24T03:16:12;9.30;;;5.22;;
73684;SDS011;61985;51.070;14.064;2023-04-24T03:18:37;8.48;;;6.00;;
73684;SDS011;61985;51.070;14.064;2023-04-24T03:21:03;9.52;;;5.45;;
73684;SDS011;61985;51.070;14.064;2023-04-24T03:23:28;8.18;;;5.18;;
73684;SDS011;61985;51.070;14.064;2023-04-24T03:25:53;10.85;;;6.07;;
73684;SDS011;61985;51.070;14.064;2023-04-24T03:28:21;8.90;;;5.55;;
73684;SDS011;61985;51.070;14.064;2023-04-24T03:30:46;10.50;;;6.22;;
73684;SDS011;61985;51.070;14.064;2023-04-24T03:33:12;9.85;;;5.68;;
73684;SDS011;61985;51.070;14.064;2023-04-24T03:35:37;10.55;;;6.10;;
73684;SDS011;61985;51.070;14.064;2023-04-24T03:38:04;10.80;;;5.93;;
73684;SDS011;61985;51.070;14.064;2023-04-24T03:40:29;10.25;;;6.05;;
73684;SDS011;61985;51.070;14.064;2023-04-24T03:42:55;11.77;;;6.28;;
73684;SDS011;61985;51.070;14.064;2023-04-24T03:45:20;10.32;;;6.45;;
73684;SDS011;61985;51.070;14.064;2023-04-24T03:47:46;11.05;;;6.82;;
73684;SDS011;61985;51.070;14.064;2023-04-24T03:50:11;9.52;;;6.45;;
73684;SDS011;61985;51.070;14.064;2023-04-24T03:52:37;10.05;;;5.70;;
73684;SDS011;61985;51.070;14.064;2023-04-24T03:55:02;8.70;;;5.72;;
73684;SDS011;61985;51.070;14.064;2023-04-24T03:57:27;9.73;;;6.32;;
73684;SDS011;61985;51.070;14.064;2023-04-24T03:59:53;12.75;;;6.65;;
73684;SDS011;61985;51.070;14.064;2023-04-24T04:02:18;9.57;;;5.75;;
73684;SDS011;61985;51.070;14.064;2023-04-24T04:04:44;9.45;;;5.97;;
73684;SDS011;61985;51.070;14.064;2023-04-24T04:07:09;10.30;;;6.45;;
73684;SDS011;61985;51.070;14.064;2023-04-24T04:09:34;11.48;;;6.68;;
73684;SDS011;61985;51.070;14.064;2023-04-24T04:12:00;10.43;;;6.38;;
73684;SDS011;61985;51.070;14.064;2023-04-24T04:14:25;11.20;;;6.20;;
73684;SDS011;61985;51.070;14.064;2023-04-24T04:16:51;11.80;;;6.32;;
73684;SDS011;61985;51.070;14.064;2023-04-24T04:19:16;9.85;;;5.90;;
73684;SDS011;61985;51.070;14.064;2023-04-24T04:21:42;11.20;;;6.20;;
73684;SDS011;61985;51.070;14.064;2023-04-24T04:24:07;14.05;;;9.07;;
73684;SDS011;61985;51.070;14.064;2023-04-24T04:26:32;13.52;;;9.05;;
73684;SDS011;61985;51.070;14.064;2023-04-24T04:28:58;19.25;;;11.32;;
73684;SDS011;61985;51.070;14.064;2023-04-24T04:31:25;122.13;;;50.10;;
73684;SDS011;61985;51.070;14.064;2023-04-24T04:33:51;35.67;;;18.67;;
73684;SDS011;61985;51.070;14.064;2023-04-24T04:36:16;24.40;;;13.93;;
73684;SDS011;61985;51.070;14.064;2023-04-24T04:38:42;36.80;;;18.95;;
73684;SDS011;61985;51.070;14.064;2023-04-24T04:41:08;49.10;;;27.67;;
73684;SDS011;61985;51.070;14.064;2023-04-24T04:43:33;59.20;;;34.28;;
73684;SDS011;61985;51.070;14.064;2023-04-24T04:46:00;23.92;;;14.68;;
73684;SDS011;61985;51.070;14.064;2023-04-24T04:48:26;17.65;;;11.80;;
73684;SDS011;61985;51.070;14.064;2023-04-24T04:50:52;13.50;;;8.68;;
73684;SDS011;61985;51.070;14.064;2023-04-24T04:53:17;13.23;;;8.30;;
73684;SDS011;61985;51.070;14.064;2023-04-24T04:55:42;13.93;;;8.93;;
73684;SDS011;61985;51.070;14.064;2023-04-24T04:58:10;13.98;;;7.10;;
73684;SDS011;61985;51.070;14.064;2023-04-24T05:00:35;8.35;;;5.45;;
73684;SDS011;61985;51.070;14.064;2023-04-24T05:03:02;12.15;;;5.80;;
73684;SDS011;61985;51.070;14.064;2023-04-24T05:05:28;10.85;;;5.45;;
73684;SDS011;61985;51.070;14.064;2023-04-24T05:07:53;9.95;;;5.63;;
73684;SDS011;61985;51.070;14.064;2023-04-24T05:10:19;11.65;;;5.70;;
73684;SDS011;61985;51.070;14.064;2023-04-24T05:12:44;12.85;;;6.50;;
73684;SDS011;61985;51.070;14.064;2023-04-24T05:15:10;10.68;;;5.85;;
73684;SDS011;61985;51.070;14.064;2023-04-24T05:17:36;8.20;;;5.00;;
73684;SDS011;61985;51.070;14.064;2023-04-24T05:20:01;9.38;;;5.28;;
73684;SDS011;61985;51.070;14.064;2023-04-24T05:22:30;8.55;;;4.55;;
73684;SDS011;61985;51.070;14.064;2023-04-24T05:24:55;7.47;;;4.03;;
73684;SDS011;61985;51.070;14.064;2023-04-24T05:27:21;8.77;;;4.75;;
73684;SDS011;61985;51.070;14.064;2023-04-24T05:29:46;8.10;;;4.20;;
73684;SDS011;61985;51.070;14.064;2023-04-24T05:32:12;7.90;;;4.32;;
73684;SDS011;61985;51.070;14.064;2023-04-24T05:34:37;6.20;;;4.13;;
73684;SDS011;61985;51.070;14.064;2023-04-24T05:37:02;7.97;;;4.00;;
73684;SDS011;61985;51.070;14.064;2023-04-24T05:39:28;8.10;;;4.10;;
73684;SDS011;61985;51.070;14.064;2023-04-24T05:41:54;8.13;;;4.57;;
73684;SDS011;61985;51.070;14.064;2023-04-24T05:44:21;7.65;;;4.85;;
73684;SDS011;61985;51.070;14.064;2023-04-24T05:46:46;8.02;;;4.65;;
73684;SDS011;61985;51.070;14.064;2023-04-24T05:49:11;6.82;;;3.95;;
73684;SDS011;61985;51.070;14.064;2023-04-24T05:51:37;8.00;;;4.43;;
73684;SDS011;61985;51.070;14.064;2023-04-24T05:54:07;7.45;;;4.45;;
73684;SDS011;61985;51.070;14.064;2023-04-24T05:56:32;8.35;;;4.07;;
73684;SDS011;61985;51.070;14.064;2023-04-24T05:59:01;7.13;;;3.80;;
73684;SDS011;61985;51.070;14.064;2023-04-24T06:01:26;6.90;;;3.88;;
73684;SDS011;61985;51.070;14.064;2023-04-24T06:03:51;6.45;;;3.83;;
73684;SDS011;61985;51.070;14.064;2023-04-24T06:06:17;5.18;;;3.35;;
73684;SDS011;61985;51.070;14.064;2023-04-24T06:08:44;6.68;;;3.10;;
73684;SDS011;61985;51.070;14.064;2023-04-24T06:11:10;4.60;;;2.80;;
73684;SDS011;61985;51.070;14.064;2023-04-24T06:13:35;4.43;;;2.65;;
73684;SDS011;61985;51.070;14.064;2023-04-24T06:16:02;4.10;;;2.45;;
73684;SDS011;61985;51.070;14.064;2023-04-24T06:18:27;2.28;;;1.90;;
73684;SDS011;61985;51.070;14.064;2023-04-24T06:20:52;4.50;;;2.50;;
73684;SDS011;61985;51.070;14.064;2023-04-24T06:23:17;7.70;;;2.17;;
73684;SDS011;61985;51.070;14.064;2023-04-24T06:25:44;3.83;;;2.33;;
73684;SDS011;61985;51.070;14.064;2023-04-24T06:28:09;3.60;;;1.85;;
73684;SDS011;61985;51.070;14.064;2023-04-24T06:30:35;2.90;;;1.88;;
73684;SDS011;61985;51.070;14.064;2023-04-24T06:33:00;3.05;;;1.83;;
73684;SDS011;61985;51.070;14.064;2023-04-24T06:35:25;2.90;;;1.90;;
73684;SDS011;61985;51.070;14.064;2023-04-24T06:37:51;3.70;;;1.52;;
73684;SDS011;61985;51.070;14.064;2023-04-24T06:40:16;4.25;;;2.00;;
73684;SDS011;61985;51.070;14.064;2023-04-24T06:42:43;2.47;;;1.60;;
73684;SDS011;61985;51.070;14.064;2023-04-24T06:45:08;2.88;;;1.80;;
73684;SDS011;61985;51.070;14.064;2023-04-24T06:47:34;2.78;;;1.70;;
73684;SDS011;61985;51.070;14.064;2023-04-24T06:50:00;1.98;;;1.42;;
73684;SDS011;61985;51.070;14.064;2023-04-24T06:52:25;2.50;;;1.42;;
73684;SDS011;61985;51.070;14.064;2023-04-24T06:54:51;2.38;;;1.20;;
73684;SDS011;61985;51.070;14.064;2023-04-24T06:57:17;1.27;;;1.17;;
73684;SDS011;61985;51.070;14.064;2023-04-24T06:59:42;1.08;;;1.00;;
73684;SDS011;61985;51.070;14.064;2023-04-24T07:02:08;1.88;;;1.02;;
73684;SDS011;61985;51.070;14.064;2023-04-24T07:04:33;2.42;;;1.27;;
73684;SDS011;61985;51.070;14.064;2023-04-24T07:06:58;3.60;;;1.40;;
73684;SDS011;61985;51.070;14.064;2023-04-24T07:09:25;6.22;;;1.30;;
73684;SDS011;61985;51.070;14.064;2023-04-24T07:11:53;3.00;;;1.38;;
73684;SDS011;61985;51.070;14.064;2023-04-24T07:14:21;2.25;;;1.60;;
73684;SDS011;61985;51.070;14.064;2023-04-24T07:16:46;2.45;;;1.38;;
73684;SDS011;61985;51.070;14.064;2023-04-24T07:19:12;2.22;;;1.13;;
73684;SDS011;61985;51.070;14.064;2023-04-24T07:21:38;2.08;;;1.20;;
73684;SDS011;61985;51.070;14.064;2023-04-24T07:24:04;3.95;;;1.20;;
73684;SDS011;61985;51.070;14.064;2023-04-24T07:26:30;3.05;;;1.13;;
73684;SDS011;61985;51.070;14.064;2023-04-24T07:28:55;2.55;;;1.33;;
73684;SDS011;61985;51.070;14.064;2023-04-24T07:31:21;3.03;;;1.20;;
73684;SDS011;61985;51.070;14.064;2023-04-24T07:33:48;4.13;;;1.13;;
73684;SDS011;61985;51.070;14.064;2023-04-24T07:36:13;4.82;;;1.45;;
73684;SDS011;61985;51.070;14.064;2023-04-24T07:38:43;2.83;;;1.20;;
73684;SDS011;61985;51.070;14.064;2023-04-24T07:41:09;4.72;;;2.70;;
73684;SDS011;61985;51.070;14.064;2023-04-24T07:43:34;7.93;;;4.20;;
73684;SDS011;61985;51.070;14.064;2023-04-24T07:46:00;7.50;;;4.18;;
73684;SDS011;61985;51.070;14.064;2023-04-24T07:48:26;6.05;;;3.17;;
73684;SDS011;61985;51.070;14.064;2023-04-24T07:50:53;9.88;;;4.45;;
73684;SDS011;61985;51.070;14.064;2023-04-24T07:53:18;7.90;;;4.53;;
73684;SDS011;61985;51.070;14.064;2023-04-24T07:55:43;9.32;;;4.47;;
73684;SDS011;61985;51.070;14.064;2023-04-24T07:58:09;8.82;;;5.10;;
73684;SDS011;61985;51.070;14.064;2023-04-24T08:00:34;7.10;;;3.90;;
73684;SDS011;61985;51.070;14.064;2023-04-24T08:03:00;7.22;;;3.88;;
73684;SDS011;61985;51.070;14.064;2023-04-24T08:05:26;9.68;;;4.80;;
73684;SDS011;61985;51.070;14.064;2023-04-24T08:07:53;6.32;;;2.65;;
73684;SDS011;61985;51.070;14.064;2023-04-24T08:10:20;3.78;;;1.92;;
73684;SDS011;61985;51.070;14.064;2023-04-24T08:12:46;5.32;;;1.80;;
73684;SDS011;61985;51.070;14.064;2023-04-24T08:15:11;5.63;;;2.50;;
73684;SDS011;61985;51.070;14.064;2023-04-24T08:17:37;3.50;;;1.60;;
73684;SDS011;61985;51.070;14.064;2023-04-24T08:20:03;2.30;;;1.73;;
73684;SDS011;61985;51.070;14.064;2023-04-24T08:22:30;4.28;;;2.22;;
73684;SDS011;61985;51.070;14.064;2023-04-24T08:24:55;7.03;;;2.45;;
73684;SDS011;61985;51.070;14.064;2023-04-24T08:27:22;6.93;;;2.60;;
73684;SDS011;61985;51.070;14.064;2023-04-24T08:29:48;2.80;;;1.90;;
73684;SDS011;61985;51.070;14.064;2023-04-24T08:32:13;4.00;;;2.00;;
73684;SDS011;61985;51.070;14.064;2023-04-24T08:34:38;4.40;;;1.80;;
73684;SDS011;61985;51.070;14.064;2023-04-24T08:37:04;2.42;;;1.60;;
73684;SDS011;61985;51.070;14.064;2023-04-24T08:39:29;6.00;;;2.08;;
73684;SDS011;61985;51.070;14.064;2023-04-24T08:41:55;3.95;;;1.90;;
73684;SDS011;61985;51.070;14.064;2023-04-24T08:44:21;4.30;;;1.20;;
73684;SDS011;61985;51.070;14.064;2023-04-24T08:46:47;2.03;;;1.45;;
73684;SDS011;61985;51.070;14.064;2023-04-24T08:49:13;4.97;;;1.73;;
73684;SDS011;61985;51.070;14.064;2023-04-24T08:51:41;2.60;;;1.40;;
73684;SDS011;61985;51.070;14.064;2023-04-24T08:54:07;3.08;;;1.85;;
73684;SDS011;61985;51.070;14.064;2023-04-24T08:56:34;2.55;;;1.30;;
73684;SDS011;61985;51.070;14.064;2023-04-24T08:59:03;12.68;;;6.00;;
73684;SDS011;61985;51.070;14.064;2023-04-24T09:01:29;3.50;;;1.20;;
73684;SDS011;61985;51.070;14.064;2023-04-24T09:03:57;4.88;;;1.55;;
73684;SDS011;61985;51.070;14.064;2023-04-24T09:06:27;1.50;;;1.20;;
73684;SDS011;61985;51.070;14.064;2023-04-24T09:08:53;2.25;;;1.20;;
73684;SDS011;61985;51.070;14.064;2023-04-24T09:11:19;2.65;;;1.65;;
73684;SDS011;61985;51.070;14.064;2023-04-24T09:13:44;3.45;;;2.00;;
73684;SDS011;61985;51.070;14.064;2023-04-24T09:16:10;6.13;;;3.38;;
73684;SDS011;61985;51.070;14.064;2023-04-24T09:18:36;8.95;;;4.57;;
73684;SDS011;61985;51.070;14.064;2023-04-24T09:21:08;9.95;;;5.28;;
73684;SDS011;61985;51.070;14.064;2023-04-24T09:23:34;7.43;;;3.67;;
73684;SDS011;61985;51.070;14.064;2023-04-24T09:26:03;9.10;;;4.85;;
73684;SDS011;61985;51.070;14.064;2023-04-24T09:28:32;12.38;;;6.30;;
73684;SDS011;61985;51.070;14.064;2023-04-24T09:31:08;13.07;;;6.43;;
73684;SDS011;61985;51.070;14.064;2023-04-24T09:33:35;14.82;;;7.93;;
73684;SDS011;61985;51.070;14.064;2023-04-24T09:36:02;15.82;;;7.95;;
73684;SDS011;61985;51.070;14.064;2023-04-24T09:38:31;11.77;;;6.80;;
73684;SDS011;61985;51.070;14.064;2023-04-24T09:40:59;11.10;;;5.30;;
73684;SDS011;61985;51.070;14.064;2023-04-24T09:43:27;10.20;;;5.43;;
73684;SDS011;61985;51.070;14.064;2023-04-24T09:45:55;10.18;;;5.65;;
73684;SDS011;61985;51.070;14.064;2023-04-24T09:48:32;10.05;;;5.18;;
73684;SDS011;61985;51.070;14.064;2023-04-24T09:51:01;12.10;;;5.68;;
73684;SDS011;61985;51.070;14.064;2023-04-24T09:53:28;8.98;;;4.85;;
73684;SDS011;61985;51.070;14.064;2023-04-24T09:55:55;6.75;;;3.50;;
73684;SDS011;61985;51.070;14.064;2023-04-24T09:58:27;7.00;;;4.32;;
73684;SDS011;61985;51.070;14.064;2023-04-24T10:08:39;9.52;;;4.93;;
73684;SDS011;61985;51.070;14.064;2023-04-24T10:11:07;6.63;;;4.18;;
73684;SDS011;61985;51.070;14.064;2023-04-24T10:13:36;8.18;;;4.32;;
73684;SDS011;61985;51.070;14.064;2023-04-24T10:16:05;7.88;;;4.43;;
73684;SDS011;61985;51.070;14.064;2023-04-24T10:18:31;6.45;;;4.18;;
73684;SDS011;61985;51.070;14.064;2023-04-24T10:20:57;7.95;;;4.10;;
73684;SDS011;61985;51.070;14.064;2023-04-24T10:26:01;8.35;;;4.10;;
73684;SDS011;61985;51.070;14.064;2023-04-24T10:28:28;10.45;;;4.55;;
73684;SDS011;61985;51.070;14.064;2023-04-24T10:30:56;10.30;;;4.32;;
73684;SDS011;61985;51.070;14.064;2023-04-24T10:33:23;8.25;;;4.30;;
73684;SDS011;61985;51.070;14.064;2023-04-24T10:35:49;6.32;;;4.28;;
73684;SDS011;61985;51.070;14.064;2023-04-24T10:41:24;6.90;;;3.67;;
73684;SDS011;61985;51.070;14.064;2023-04-24T11:14:15;6.78;;;4.65;;
73684;SDS011;61985;51.070;14.064;2023-04-24T11:19:20;7.38;;;4.75;;
73684;SDS011;61985;51.070;14.064;2023-04-24T11:22:02;7.15;;;4.50;;
73684;SDS011;61985;51.070;14.064;2023-04-24T11:34:53;7.15;;;4.53;;
73684;SDS011;61985;51.070;14.064;2023-04-24T11:42:52;9.27;;;5.13;;
73684;SDS011;61985;51.070;14.064;2023-04-24T11:45:27;6.55;;;4.70;;
73684;SDS011;61985;51.070;14.064;2023-04-24T12:31:51;0.70;;;0.70;;
73684;SDS011;61985;51.070;14.064;2023-04-24T12:34:25;2.00;;;0.82;;
73684;SDS011;61985;51.070;14.064;2023-04-24T12:36:52;0.90;;;0.90;;
73684;SDS011;61985;51.070;14.064;2023-04-24T12:41:56;1.50;;;0.90;;
73684;SDS011;61985;51.070;14.064;2023-04-24T12:44:43;1.50;;;0.80;;
73684;SDS011;61985;51.070;14.064;2023-04-24T12:47:07;1.33;;;0.60;;
73684;SDS011;61985;51.070;14.064;2023-04-24T12:49:34;1.60;;;0.88;;
73684;SDS011;61985;51.070;14.064;2023-04-24T12:51:59;0.93;;;0.70;;
73684;SDS011;61985;51.070;14.064;2023-04-24T12:54:25;2.47;;;1.00;;
73684;SDS011;61985;51.070;14.064;2023-04-24T12:56:50;3.83;;;1.35;;
73684;SDS011;61985;51.070;14.064;2023-04-24T12:59:15;1.02;;;0.90;;
73684;SDS011;61985;51.070;14.064;2023-04-24T13:01:41;3.40;;;1.25;;
73684;SDS011;61985;51.070;14.064;2023-04-24T13:04:06;2.85;;;1.17;;
73684;SDS011;61985;51.070;14.064;2023-04-24T13:06:32;3.03;;;1.60;;
73684;SDS011;61985;51.070;14.064;2023-04-24T13:08:57;1.77;;;0.90;;
73684;SDS011;61985;51.070;14.064;2023-04-24T13:11:23;1.13;;;0.98;;
73684;SDS011;61985;51.070;14.064;2023-04-24T13:13:50;1.10;;;1.00;;
73684;SDS011;61985;51.070;14.064;2023-04-24T13:16:15;2.15;;;0.90;;
73684;SDS011;61985;51.070;14.064;2023-04-24T13:18:41;4.38;;;1.13;;
73684;SDS011;61985;51.070;14.064;2023-04-24T13:21:06;2.38;;;1.08;;
73684;SDS011;61985;51.070;14.064;2023-04-24T13:23:31;3.90;;;1.05;;
73684;SDS011;61985;51.070;14.064;2023-04-24T13:25:57;2.38;;;1.30;;
73684;SDS011;61985;51.070;14.064;2023-04-24T13:28:22;1.70;;;1.02;;
73684;SDS011;61985;51.070;14.064;2023-04-24T13:30:48;3.05;;;1.20;;
73684;SDS011;61985;51.070;14.064;2023-04-24T13:33:15;5.00;;;1.45;;
73684;SDS011;61985;51.070;14.064;2023-04-24T13:35:40;4.45;;;1.30;;
73684;SDS011;61985;51.070;14.064;2023-04-24T13:38:05;2.60;;;1.00;;
73684;SDS011;61985;51.070;14.064;2023-04-24T13:40:31;2.15;;;1.20;;
73684;SDS011;61985;51.070;14.064;2023-04-24T13:42:57;1.80;;;1.10;;
73684;SDS011;61985;51.070;14.064;2023-04-24T13:45:22;1.77;;;1.00;;
73684;SDS011;61985;51.070;14.064;2023-04-24T13:47:49;1.33;;;1.00;;
73684;SDS011;61985;51.070;14.064;2023-04-24T13:50:14;1.20;;;1.10;;
73684;SDS011;61985;51.070;14.064;2023-04-24T13:52:41;1.48;;;1.10;;
73684;SDS011;61985;51.070;14.064;2023-04-24T13:55:06;1.73;;;1.15;;
73684;SDS011;61985;51.070;14.064;2023-04-24T13:57:32;2.72;;;1.10;;
73684;SDS011;61985;51.070;14.064;2023-04-24T13:59:59;1.52;;;0.90;;
73684;SDS011;61985;51.070;14.064;2023-04-24T14:02:26;1.58;;;1.20;;
73684;SDS011;61985;51.070;14.064;2023-04-24T14:04:52;2.72;;;1.33;;
73684;SDS011;61985;51.070;14.064;2023-04-24T14:07:17;1.10;;;1.00;;
73684;SDS011;61985;51.070;14.064;2023-04-24T14:09:43;1.85;;;1.17;;
73684;SDS011;61985;51.070;14.064;2023-04-24T14:12:08;4.55;;;1.25;;
73684;SDS011;61985;51.070;14.064;2023-04-24T14:14:33;3.20;;;1.20;;
73684;SDS011;61985;51.070;14.064;2023-04-24T14:16:59;1.23;;;1.05;;
73684;SDS011;61985;51.070;14.064;2023-04-24T14:19:25;2.67;;;1.20;;
73684;SDS011;61985;51.070;14.064;2023-04-24T14:21:50;1.50;;;1.00;;
73684;SDS011;61985;51.070;14.064;2023-04-24T14:24:15;1.10;;;1.00;;
73684;SDS011;61985;51.070;14.064;2023-04-24T14:26:41;1.10;;;1.00;;
73684;SDS011;61985;51.070;14.064;2023-04-24T14:29:06;1.80;;;1.15;;
73684;SDS011;61985;51.070;14.064;2023-04-24T14:31:32;2.65;;;1.35;;
73684;SDS011;61985;51.070;14.064;2023-04-24T14:33:57;2.30;;;1.30;;
73684;SDS011;61985;51.070;14.064;2023-04-24T14:36:22;1.20;;;1.10;;
73684;SDS011;61985;51.070;14.064;2023-04-24T14:38:48;2.17;;;1.10;;
73684;SDS011;61985;51.070;14.064;2023-04-24T14:41:16;2.53;;;1.25;;
73684;SDS011;61985;51.070;14.064;2023-04-24T14:43:45;3.88;;;1.20;;
73684;SDS011;61985;51.070;14.064;2023-04-24T14:46:10;2.88;;;1.30;;
73684;SDS011;61985;51.070;14.064;2023-04-24T14:48:35;1.30;;;1.20;;
73684;SDS011;61985;51.070;14.064;2023-04-24T14:51:01;2.83;;;1.30;;
73684;SDS011;61985;51.070;14.064;2023-04-24T14:53:26;1.98;;;1.10;;
73684;SDS011;61985;51.070;14.064;2023-04-24T14:55:55;1.20;;;1.10;;
73684;SDS011;61985;51.070;14.064;2023-04-24T14:58:20;1.20;;;1.10;;
73684;SDS011;61985;51.070;14.064;2023-04-24T15:00:47;1.70;;;1.00;;
73684;SDS011;61985;51.070;14.064;2023-04-24T15:03:14;2.08;;;1.00;;
73684;SDS011;61985;51.070;14.064;2023-04-24T15:05:40;2.13;;;1.20;;
73684;SDS011;61985;51.070;14.064;2023-04-24T15:08:06;4.72;;;1.10;;
73684;SDS011;61985;51.070;14.064;2023-04-24T15:10:31;2.13;;;1.20;;
73684;SDS011;61985;51.070;14.064;2023-04-24T15:12:56;1.58;;;1.30;;
73684;SDS011;61985;51.070;14.064;2023-04-24T15:15:22;4.15;;;1.20;;
73684;SDS011;61985;51.070;14.064;2023-04-24T15:17:48;3.17;;;1.20;;
73684;SDS011;61985;51.070;14.064;2023-04-24T15:20:14;1.10;;;1.00;;
73684;SDS011;61985;51.070;14.064;2023-04-24T15:22:39;2.08;;;1.30;;
73684;SDS011;61985;51.070;14.064;2023-04-24T15:25:05;2.45;;;1.40;;
73684;SDS011;61985;51.070;14.064;2023-04-24T15:27:40;1.80;;;1.25;;
73684;SDS011;61985;51.070;14.064;2023-04-24T15:30:09;2.42;;;1.30;;
73684;SDS011;61985;51.070;14.064;2023-04-24T15:32:35;2.00;;;1.42;;
73684;SDS011;61985;51.070;14.064;2023-04-24T15:35:01;32.42;;;16.58;;
73684;SDS011;61985;51.070;14.064;2023-04-24T15:37:27;4.00;;;2.58;;
73684;SDS011;61985;51.070;14.064;2023-04-24T15:39:52;1.83;;;1.20;;
73684;SDS011;61985;51.070;14.064;2023-04-24T15:42:18;25.92;;;12.77;;
73684;SDS011;61985;51.070;14.064;2023-04-24T15:44:43;20.38;;;10.63;;
73684;SDS011;61985;51.070;14.064;2023-04-24T15:47:08;6.13;;;2.03;;
73684;SDS011;61985;51.070;14.064;2023-04-24T15:49:34;7.68;;;3.88;;
73684;SDS011;61985;51.070;14.064;2023-04-24T15:51:59;1.95;;;1.70;;
73684;SDS011;61985;51.070;14.064;2023-04-24T15:54:25;1.25;;;1.13;;
73684;SDS011;61985;51.070;14.064;2023-04-24T15:56:51;3.92;;;2.03;;
73684;SDS011;61985;51.070;14.064;2023-04-24T15:59:18;2.47;;;1.10;;
73684;SDS011;61985;51.070;14.064;2023-04-24T16:01:46;1.60;;;1.48;;
73684;SDS011;61985;51.070;14.064;2023-04-24T16:04:12;3.75;;;1.30;;
73684;SDS011;61985;51.070;14.064;2023-04-24T16:06:38;2.05;;;1.20;;
73684;SDS011;61985;51.070;14.064;2023-04-24T16:09:03;3.53;;;1.40;;
73684;SDS011;61985;51.070;14.064;2023-04-24T16:11:28;3.05;;;1.63;;
73684;SDS011;61985;51.070;14.064;2023-04-24T16:13:54;2.88;;;1.30;;